createdAt,value
2019-01-05T00:00:09.460Z,1.40
2019-01-05T00:03:04.485Z,1.60
2019-01-05T00:05:52.183Z,1.50
2019-01-05T00:08:53.333Z,1.50
2019-01-05T00:11:43.101Z,1.70
2019-01-05T00:18:22.937Z,1.40
2019-01-05T00:21:22.498Z,1.60
2019-01-05T00:30:28.127Z,1.50
2019-01-05T00:33:16.176Z,1.50
2019-01-05T00:36:22.536Z,1.60
2019-01-05T00:39:13.174Z,1.50
2019-01-05T00:42:00.823Z,1.50
2019-01-05T00:45:01.806Z,1.40
2019-01-05T00:47:59.750Z,1.50
2019-01-05T00:51:03.963Z,1.50
2019-01-05T00:53:55.008Z,1.50
2019-01-05T00:56:54.406Z,1.50
2019-01-05T00:59:42.866Z,1.50
2019-01-05T01:06:22.525Z,1.50
2019-01-05T01:09:14.704Z,1.40
2019-01-05T01:12:02.235Z,1.40
2019-01-05T01:14:53.710Z,1.40
2019-01-05T01:21:32.352Z,1.60
2019-01-05T01:31:38.522Z,1.80
2019-01-05T01:45:04.923Z,1.70
2019-01-05T01:47:53.610Z,1.80
2019-01-05T01:54:35.570Z,1.70
2019-01-05T02:04:36.799Z,1.70
2019-01-05T02:07:25.201Z,1.70
2019-01-05T02:29:49.093Z,1.50
2019-01-05T02:33:47.549Z,1.40
2019-01-05T02:37:14.270Z,1.50
2019-01-05T02:40:59.029Z,1.40
2019-01-05T02:44:54.936Z,1.40
2019-01-05T02:48:33.594Z,1.30
2019-01-05T02:52:25.118Z,1.30
2019-01-05T02:56:08.981Z,1.30
2019-01-05T02:59:56.837Z,1.40
2019-01-05T03:03:48.205Z,1.30
2019-01-05T03:07:26.998Z,1.30
2019-01-05T03:11:08.003Z,1.20
2019-01-05T03:15:08.838Z,1.20
2019-01-05T03:19:15.769Z,1.20
2019-01-05T03:22:52.798Z,1.30
2019-01-05T03:26:50.614Z,1.30
2019-01-05T03:30:23.669Z,1.30
2019-01-05T03:34:19.855Z,1.30
2019-01-05T03:55:49.784Z,1.30
2019-01-05T03:59:44.088Z,1.30
2019-01-05T04:03:36.518Z,1.20
2019-01-05T04:07:19.068Z,1.40
2019-01-05T04:10:57.420Z,1.30
2019-01-05T04:14:41.664Z,1.30
2019-01-05T04:25:34.808Z,1.40
2019-01-05T04:29:37.654Z,1.40
2019-01-05T04:33:03.822Z,1.30
2019-01-05T04:47:37.063Z,1.10
2019-01-05T05:01:20.296Z,0.80
2019-01-05T05:04:56.908Z,0.80
2019-01-05T05:08:42.316Z,0.80
2019-01-05T05:12:47.054Z,0.80
2019-01-05T05:16:14.694Z,0.70
2019-01-05T05:20:01.411Z,0.80
2019-01-05T05:23:45.557Z,0.80
2019-01-05T05:27:24.694Z,0.80
2019-01-05T05:31:22.810Z,0.90
2019-01-05T05:35:22.472Z,0.90
2019-01-05T05:39:22.841Z,1.00
2019-01-05T05:43:12.716Z,0.80
2019-01-05T05:46:33.338Z,0.80
2019-01-05T05:50:19.502Z,0.70
2019-01-05T05:53:35.188Z,0.70
2019-01-05T05:57:45.351Z,0.60
2019-01-05T06:02:25.647Z,0.80
2019-01-05T06:06:20.063Z,0.70
2019-01-05T06:09:45.601Z,0.60
2019-01-05T06:13:50.146Z,0.60
2019-01-05T06:17:27.761Z,0.50
2019-01-05T06:21:24.202Z,0.50
2019-01-05T06:45:56.760Z,0.50
2019-01-05T06:49:45.382Z,0.50
2019-01-05T06:53:27.305Z,0.40
2019-01-05T06:57:39.113Z,0.60
2019-01-05T07:01:24.143Z,0.50
2019-01-05T07:05:10.536Z,0.60
2019-01-05T07:24:13.656Z,0.50
2019-01-05T07:42:29.573Z,0.60
2019-01-05T07:46:22.926Z,0.60
2019-01-05T07:50:39.534Z,0.60
2019-01-05T07:54:52.026Z,0.60
2019-01-05T07:58:38.400Z,0.50
2019-01-05T08:02:29.170Z,0.50
2019-01-05T08:06:21.857Z,0.60
2019-01-05T08:10:07.437Z,0.70
2019-01-05T08:14:25.958Z,0.60
2019-01-05T08:18:43.590Z,0.50
2019-01-05T08:22:45.749Z,0.60
2019-01-05T08:27:00.585Z,0.70
2019-01-05T08:30:35.634Z,0.60
2019-01-05T08:34:20.371Z,0.70
2019-01-05T08:38:18.839Z,0.60
2019-01-05T08:42:02.438Z,0.60
2019-01-05T08:46:02.096Z,0.60
2019-01-05T08:50:39.521Z,0.50
2019-01-05T08:54:26.231Z,0.80
2019-01-05T08:58:17.486Z,0.70
2019-01-05T09:02:01.726Z,0.70
2019-01-05T09:05:31.260Z,0.70
2019-01-05T09:09:18.188Z,0.80
2019-01-05T09:13:22.742Z,0.60
2019-01-05T09:24:55.510Z,0.60
2019-01-05T09:29:10.674Z,0.70
2019-01-05T09:33:09.419Z,0.70
2019-01-05T09:37:01.994Z,0.60
2019-01-05T09:40:39.620Z,0.60
2019-01-05T09:51:19.125Z,0.70
2019-01-05T10:14:58.775Z,0.60
2019-01-05T10:18:43.777Z,0.60
2019-01-05T10:22:10.710Z,0.70
2019-01-05T10:26:02.270Z,0.60
2019-01-05T10:29:51.274Z,0.60
2019-01-05T10:33:59.229Z,0.70
2019-01-05T10:38:16.464Z,0.70
2019-01-05T10:42:12.962Z,0.60
2019-01-05T10:46:09.885Z,0.80
2019-01-05T10:49:47.755Z,0.80
2019-01-05T10:53:25.492Z,0.80
2019-01-05T10:57:35.946Z,0.80
2019-01-05T11:01:51.416Z,0.80
2019-01-05T11:05:41.244Z,0.80
2019-01-05T11:09:09.385Z,0.80
2019-01-05T11:13:19.070Z,0.90
2019-01-05T11:16:44.405Z,1.00
2019-01-05T11:20:35.906Z,0.90
2019-01-05T11:24:27.772Z,0.80
2019-01-05T11:28:14.412Z,0.80
2019-01-05T11:31:55.450Z,1.00
2019-01-05T11:35:35.073Z,1.10
2019-01-05T11:39:36.873Z,1.10
2019-01-05T11:43:11.814Z,1.00
2019-01-05T11:47:15.016Z,1.10
2019-01-05T11:50:57.077Z,1.20
2019-01-05T11:54:45.078Z,1.20
2019-01-05T11:58:31.702Z,1.10
2019-01-05T12:09:07.857Z,1.20
2019-01-05T12:49:14.527Z,1.40
2019-01-05T12:53:11.363Z,1.40
2019-01-05T12:57:12.718Z,1.40
2019-01-05T13:01:22.827Z,1.50
2019-01-05T13:05:10.802Z,1.40
2019-01-05T13:08:53.469Z,1.50
2019-01-05T13:12:42.815Z,1.60
2019-01-05T13:16:13.015Z,1.70
2019-01-05T13:19:40.263Z,1.70
2019-01-05T13:23:28.843Z,1.70
2019-01-05T13:27:06.690Z,1.70
2019-01-05T13:31:02.593Z,1.70
2019-01-05T13:35:05.506Z,1.70
2019-01-05T13:39:02.767Z,1.70
2019-01-05T13:42:50.712Z,1.70
2019-01-05T13:46:29.869Z,1.70
2019-01-05T13:50:12.993Z,1.70
2019-01-05T13:53:53.956Z,1.70
2019-01-05T13:57:01.653Z,1.70
2019-01-05T14:00:02.923Z,1.70
2019-01-05T14:02:50.220Z,1.80
2019-01-05T14:05:54.391Z,1.90
2019-01-05T14:08:37.101Z,1.80
2019-01-05T14:15:09.001Z,1.90
2019-01-05T14:18:04.322Z,1.90
2019-01-05T14:21:04.095Z,2.00
2019-01-05T14:23:51.868Z,2.00
2019-01-05T14:26:50.379Z,2.10
2019-01-05T14:29:31.559Z,2.20
2019-01-05T14:39:01.785Z,2.30
2019-01-05T14:41:53.745Z,2.30
2019-01-05T15:11:34.795Z,2.50
2019-01-05T15:14:17.651Z,2.60
2019-01-05T15:17:10.467Z,2.70
2019-01-05T15:20:02.454Z,2.70
2019-01-05T15:22:51.344Z,2.80
2019-01-05T15:25:40.621Z,2.90
2019-01-05T15:28:41.908Z,3.10
2019-01-05T15:31:39.553Z,3.00
2019-01-05T15:34:43.327Z,3.10
2019-01-05T15:37:30.869Z,3.20
2019-01-05T15:40:19.717Z,3.20
2019-01-05T15:43:17.913Z,3.20
2019-01-05T15:46:06.991Z,3.20
2019-01-05T15:49:07.761Z,3.30
2019-01-05T15:51:55.776Z,3.20
2019-01-05T15:54:59.880Z,3.30
2019-01-05T15:57:47.197Z,3.20
2019-01-05T16:00:34.395Z,3.20
2019-01-05T16:03:18.048Z,3.20
2019-01-05T16:06:05.580Z,3.20
2019-01-05T16:09:06.539Z,3.30
2019-01-05T16:11:59.620Z,3.30
2019-01-05T16:14:58.397Z,3.30
2019-01-05T16:18:01.186Z,3.20
2019-01-05T16:20:49.085Z,3.20
2019-01-05T16:23:38.386Z,3.20
2019-01-05T16:26:26.519Z,3.30
2019-01-05T16:29:14.732Z,3.30
2019-01-05T16:32:02.854Z,3.40
2019-01-05T16:34:51.926Z,3.40
2019-01-05T16:37:30.002Z,3.30
2019-01-05T16:40:21.828Z,3.30
2019-01-05T16:43:06.521Z,3.30
2019-01-05T16:45:46.581Z,3.30
2019-01-05T16:48:52.889Z,3.40
2019-01-05T16:51:47.525Z,3.40
2019-01-05T16:54:36.709Z,3.40
2019-01-05T16:57:24.458Z,3.50
2019-01-05T17:00:19.438Z,3.40
2019-01-05T17:03:03.620Z,3.50
2019-01-05T17:05:51.223Z,3.50
2019-01-05T17:08:54.506Z,3.50
2019-01-05T17:11:42.109Z,3.60
2019-01-05T17:14:37.129Z,3.50
2019-01-05T17:17:17.501Z,3.50
2019-01-05T17:20:11.959Z,3.50
2019-01-05T17:23:07.139Z,3.60
2019-01-05T17:25:55.814Z,3.50
2019-01-05T17:28:50.873Z,3.50
2019-01-05T17:31:57.684Z,3.50
2019-01-05T17:34:49.773Z,3.50
2019-01-05T17:37:41.580Z,3.50
2019-01-05T17:40:33.669Z,3.50
2019-01-05T17:43:18.614Z,3.50
2019-01-05T17:46:20.484Z,3.60
2019-01-05T17:49:19.107Z,3.50
2019-01-05T17:52:06.691Z,3.50
2019-01-05T17:55:05.060Z,3.60
2019-01-05T17:58:06.143Z,3.50
2019-01-05T18:00:59.090Z,3.50
2019-01-05T18:03:50.557Z,3.50
2019-01-05T18:06:51.537Z,3.40
2019-01-05T18:09:46.302Z,3.50
2019-01-05T18:12:33.803Z,3.50
2019-01-05T18:15:21.406Z,3.40
2019-01-05T18:18:08.998Z,3.40
2019-01-05T18:20:58.000Z,3.50
2019-01-05T18:23:46.289Z,3.50
2019-01-05T18:26:35.173Z,3.50
2019-01-05T18:29:42.278Z,3.50
2019-01-05T18:32:35.899Z,3.60
2019-01-05T18:35:20.231Z,3.60
2019-01-05T18:38:04.659Z,3.60
2019-01-05T18:40:52.443Z,3.60
2019-01-05T18:43:39.556Z,3.70
2019-01-05T18:46:28.396Z,3.70
2019-01-05T18:49:16.465Z,3.60
2019-01-05T18:52:03.686Z,3.70
2019-01-05T18:54:50.739Z,3.70
2019-01-05T18:57:38.976Z,3.60
2019-01-05T19:00:35.147Z,3.70
2019-01-05T19:03:34.200Z,3.80
2019-01-05T19:06:35.352Z,3.80
2019-01-05T19:09:25.877Z,3.70
2019-01-05T19:12:16.708Z,3.70
2019-01-05T19:15:09.209Z,3.70
2019-01-05T19:17:57.151Z,3.60
2019-01-05T19:21:04.304Z,3.70
2019-01-05T19:23:56.232Z,3.60
2019-01-05T19:26:57.018Z,3.70
2019-01-05T19:29:52.840Z,3.60
2019-01-05T19:32:35.659Z,3.70
2019-01-05T19:35:19.400Z,3.60
2019-01-05T19:38:17.167Z,3.70
2019-01-05T19:41:15.467Z,3.70
2019-01-05T19:44:10.591Z,3.60
2019-01-05T19:47:03.980Z,3.70
2019-01-05T19:49:46.304Z,3.70
2019-01-05T19:52:33.994Z,3.70
2019-01-05T19:55:14.411Z,3.70
2019-01-05T19:58:01.863Z,3.70
2019-01-05T20:00:43.990Z,3.80
2019-01-05T20:03:42.180Z,3.80
2019-01-05T20:06:43.438Z,3.80
2019-01-05T20:09:30.882Z,3.80
2019-01-05T20:12:18.458Z,3.70
2019-01-05T20:15:16.481Z,3.70
2019-01-05T20:21:56.787Z,3.80
2019-01-05T20:24:46.128Z,3.70
2019-01-05T20:27:33.872Z,3.70
2019-01-05T20:30:25.901Z,3.80
2019-01-05T20:33:29.665Z,3.70
2019-01-05T20:42:38.251Z,3.70
2019-01-05T20:45:33.178Z,3.80
2019-01-05T20:48:13.738Z,3.70
2019-01-05T20:51:15.414Z,3.80
2019-01-05T20:54:10.512Z,3.80
2019-01-05T20:57:02.179Z,3.80
2019-01-05T20:59:55.388Z,3.80
2019-01-05T21:02:42.782Z,3.90
2019-01-05T21:05:32.515Z,3.90
2019-01-05T21:08:36.588Z,3.90
2019-01-05T21:11:22.645Z,3.90
2019-01-05T21:14:23.623Z,3.90
2019-01-05T21:17:09.685Z,3.90
2019-01-05T21:19:54.801Z,3.90
2019-01-05T21:22:44.042Z,3.90
2019-01-05T21:25:40.620Z,3.90
2019-01-05T21:28:25.579Z,3.90
2019-01-05T21:31:16.532Z,3.80
2019-01-05T21:34:08.216Z,3.80
2019-01-05T21:36:56.082Z,3.80
2019-01-05T21:39:39.460Z,3.80
2019-01-05T21:42:29.475Z,3.80
2019-01-05T21:45:16.986Z,3.80
2019-01-05T21:48:04.611Z,3.80
2019-01-05T21:51:11.718Z,3.80
2019-01-05T21:53:50.377Z,3.70
2019-01-05T21:56:38.171Z,3.80
2019-01-05T21:59:23.345Z,3.80
2019-01-05T22:02:08.113Z,3.80
2019-01-05T22:04:55.942Z,3.70
2019-01-05T22:07:43.441Z,3.80
2019-01-05T22:10:28.683Z,3.70
2019-01-05T22:13:29.478Z,3.70
2019-01-05T22:16:17.146Z,3.70
2019-01-05T22:19:09.110Z,3.80
2019-01-05T22:22:13.151Z,3.70
2019-01-05T22:25:02.382Z,3.70
2019-01-05T22:28:00.208Z,3.80
2019-01-05T22:47:43.152Z,3.70
2019-01-05T22:50:45.233Z,3.70
2019-01-05T22:53:33.019Z,3.70
2019-01-05T22:56:20.593Z,3.70
2019-01-05T22:59:10.732Z,3.70
2019-01-05T23:02:12.758Z,3.70
2019-01-05T23:05:08.032Z,3.70
2019-01-05T23:07:57.489Z,3.70
2019-01-05T23:10:53.253Z,3.70
2019-01-05T23:13:41.205Z,3.70
2019-01-05T23:16:25.924Z,3.70
2019-01-05T23:19:13.228Z,3.70
2019-01-05T23:22:01.444Z,3.70
2019-01-05T23:25:00.691Z,3.70
2019-01-05T23:27:44.238Z,3.70
2019-01-05T23:34:25.398Z,3.70
2019-01-05T23:37:13.750Z,3.70
2019-01-05T23:40:02.696Z,3.70
2019-01-05T23:42:53.484Z,3.70
2019-01-05T23:49:29.634Z,3.70
2019-01-05T23:52:24.689Z,3.70
2019-01-05T23:55:29.013Z,3.80
2019-01-05T23:58:46.271Z,3.70
